This is the latest recevied weather packets stored in our database for station/object W1HVD. If no packets are shown the sender has not sent any weather packets the latest 10 day(s).
| Time | Temp. | Humidity | Pressure | Rain* | Wind** | Luminosity | Snow |
|---|---|---|---|---|---|---|---|
| 1777883404 | 5.56° C | 67% | 1011.5 hPa | 0 mm | - | 0 W/m² | - |
| 1777883101 | 5.56° C | 68% | 1011.5 hPa | 0 mm | - | 0 W/m² | - |
| 1777882797 | 5.56° C | 66% | 1011.3 hPa | 0 mm | - | 0 W/m² | - |
| 1777882495 | 5.56° C | 66% | 1011.3 hPa | 0 mm | - | 0 W/m² | - |
| 1777882189 | 5.56° C | 64% | 1011.2 hPa | 0 mm | - | 0 W/m² | - |
| 1777881886 | 5.56° C | 65% | 1011.3 hPa | 0 mm | - | 0 W/m² | - |
| 1777881583 | 5.56° C | 71% | 1011.3 hPa | 0 mm | - | 0 W/m² | - |
| 1777881280 | 5.56° C | 68% | 1011.2 hPa | 0 mm | - | 0 W/m² | - |
| 1777880977 | 5.56° C | 72% | 1011.2 hPa | 0 mm | - | 0 W/m² | - |
| 1777880676 | 5.56° C | 71% | 1011.3 hPa | 0 mm | - | 0 W/m² | - |
| 1777880373 | 5.56° C | 66% | 1011.2 hPa | 0 mm | - | 0 W/m² | - |
| 1777880071 | 5.56° C | 67% | 1011.3 hPa | 0 mm | - | 0 W/m² | - |
| 1777879770 | 5.56° C | 65% | 1011.2 hPa | 0 mm | - | 0 W/m² | - |
| 1777879466 | 5.56° C | 65% | 1011.3 hPa | 0 mm | - | 0 W/m² | - |
| 1777879163 | 5.56° C | 64% | 1011.4 hPa | 0 mm | - | 0 W/m² | - |
| 1777878860 | 5.56° C | 63% | 1011.2 hPa | 0 mm | - | 0 W/m² | - |
| 1777878557 | 5.56° C | 65% | 1011.4 hPa | 0 mm | - | 0 W/m² | - |
| 1777878254 | 5.56° C | 64% | 1011.4 hPa | 0 mm | - | 0 W/m² | - |
| 1777877950 | 5.56° C | 63% | 1011.3 hPa | 0 mm | - | 0 W/m² | - |
| 1777877646 | 5.56° C | 63% | 1011.2 hPa | 0 mm | - | 0 W/m² | - |
| 1777877343 | 5.56° C | 67% | 1011.3 hPa | 0 mm | - | 0 W/m² | - |
| 1777877041 | 5.56° C | 67% | 1011.3 hPa | 0 mm | - | 0 W/m² | - |
| 1777876739 | 5° C | 65% | 1011.1 hPa | 0 mm | - | 0 W/m² | - |
| 1777876436 | 5° C | 67% | 1011.2 hPa | 0 mm | - | 0 W/m² | - |
| 1777876132 | 5° C | 68% | 1011.2 hPa | 0 mm | - | 0 W/m² | - |
* Rain latest hour (hover to see other rain measurements)
** Current wind speed in m/s (hover to see current wind gust speed)